Pagina principale
METAR-TAF:

METAR-TAF

Aeroporti :

Morlaix, Francia

latitudine: 48-36N, longitudine: 3-49W, altezza: 84 m

Osservazione

Il bollettino è stato emesso 29 minuti fa, alle 12:30 UTC
Vento 10 kt da sud-ovest
Temperature 17°C
Umidità 77%
Pressione 1019 hPa
Visibilità 10 km o più
Poco nuvoloso ad un'altezza di 2200 ft
Nuvoloso ad un'altezza di 2900 ft
Cielo coperto ad un'altezza di 3800 ft

METAR: LFRU 161230Z AUTO 23010KT 9999 FEW022 BKN029 OVC038 17/13 Q1019

Ora: 14:59 (12:59 UTC)


TAF: mancante

Osservazioni e previsioni meteorologiche di più di 4000 aeroporti (messaggi METAR e TAF).

Le stazioni disponibili sono rappresentate dai dischi gialli e rossi sulla carta.

Puntare il mouse per vedere il nome della stazione.

Clicca sopra per visualizzare le osservazioni e previsioni meteorologiche.

Per cambiare la mappa : fare clic sui pulsanti verdi con una croce nera per ingrandire, il pulsante verde con un trattino per diminuire, o sulla freccia verde per le mappe adiacenti.


METAR-TAF: